ACA348 CYVR-CYOW
Flight info
| Callsign | ACA348 |
|---|---|
| Flight time | 4h 17m |
| Altitude | 33000 |
| Route | ALNOD DCT IKNIX DCT 49N110W/N0449F350 DCT HML DCT AGLIN DCT SMARE MEECH4 |
| Aircraft | A321/M-SDE3FGHIJ7M3P2RWY/LB1 |
Departure
| Time | 2026-05-04 12:14 |
|---|---|
| Airport | Vancouver International Airport (CYVR) |
Arrival
| Time | 2026-05-04 16:31 |
|---|---|
| Airport | Ottawa Macdonald-Cartier International Airport (CYOW) |
| Time | Latitude | Longitude | Altitude | Speed | Heading |
|---|---|---|---|---|---|
| 2026-05-04 11:36 | 49.19646 | -123.18465 | 11 ft | 0 kts | 200° |
| 2026-05-04 12:02 | 49.19681 | -123.18446 | 10 ft | 2 kts | 205° |
| 2026-05-04 12:03 | 49.19692 | -123.18430 | 10 ft | 2 kts | 241° |
| 2026-05-04 12:03 | 49.19697 | -123.18408 | 11 ft | 2 kts | 270° |
| 2026-05-04 12:03 | 49.19696 | -123.18398 | 10 ft | 0 kts | 283° |
| 2026-05-04 12:03 | 49.19699 | -123.18428 | 11 ft | 6 kts | 280° |
| 2026-05-04 12:04 | 49.19704 | -123.18473 | 11 ft | 1 kts | 280° |
| 2026-05-04 12:04 | 49.19705 | -123.18477 | 11 ft | 0 kts | 280° |
| 2026-05-04 12:06 | 49.19705 | -123.18480 | 10 ft | 0 kts | 280° |
| 2026-05-04 12:06 | 49.19706 | -123.18491 | 10 ft | 1 kts | 280° |
| 2026-05-04 12:07 | 49.19709 | -123.18514 | 10 ft | 3 kts | 281° |
| 2026-05-04 12:07 | 49.19716 | -123.18555 | 10 ft | 4 kts | 294° |
| 2026-05-04 12:07 | 49.19746 | -123.18585 | 10 ft | 6 kts | 352° |
| 2026-05-04 12:07 | 49.19795 | -123.18577 | 10 ft | 8 kts | 10° |
| 2026-05-04 12:08 | 49.19856 | -123.18561 | 10 ft | 9 kts | 10° |
| 2026-05-04 12:08 | 49.19927 | -123.18542 | 10 ft | 11 kts | 10° |
| 2026-05-04 12:08 | 49.20007 | -123.18520 | 10 ft | 12 kts | 10° |
| 2026-05-04 12:08 | 49.20083 | -123.18501 | 10 ft | 8 kts | 11° |
| 2026-05-04 12:09 | 49.20115 | -123.18435 | 10 ft | 9 kts | 94° |
| 2026-05-04 12:09 | 49.20103 | -123.18327 | 10 ft | 11 kts | 99° |
| 2026-05-04 12:09 | 49.20089 | -123.18201 | 10 ft | 13 kts | 100° |
| 2026-05-04 12:09 | 49.20073 | -123.18057 | 10 ft | 14 kts | 100° |
| 2026-05-04 12:10 | 49.20054 | -123.17895 | 10 ft | 16 kts | 100° |
| 2026-05-04 12:10 | 49.20034 | -123.17722 | 10 ft | 17 kts | 100° |
| 2026-05-04 12:10 | 49.20014 | -123.17542 | 10 ft | 17 kts | 100° |
| 2026-05-04 12:10 | 49.19991 | -123.17349 | 10 ft | 18 kts | 100° |
| 2026-05-04 12:11 | 49.19968 | -123.17150 | 10 ft | 19 kts | 100° |
| 2026-05-04 12:11 | 49.19946 | -123.16947 | 10 ft | 19 kts | 99° |
| 2026-05-04 12:11 | 49.19923 | -123.16742 | 10 ft | 19 kts | 99° |
| 2026-05-04 12:11 | 49.19900 | -123.16542 | 10 ft | 18 kts | 100° |
| 2026-05-04 12:12 | 49.19878 | -123.16351 | 10 ft | 15 kts | 100° |
| 2026-05-04 12:12 | 49.19871 | -123.16250 | 10 ft | 8 kts | 72° |
| 2026-05-04 12:12 | 49.19921 | -123.16207 | 10 ft | 9 kts | 10° |
| 2026-05-04 12:12 | 49.19986 | -123.16190 | 10 ft | 9 kts | 10° |
| 2026-05-04 12:13 | 49.20049 | -123.16173 | 10 ft | 4 kts | 10° |
| 2026-05-04 12:14 | 49.20878 | -123.23249 | 1377 ft | 172 kts | 279° |
| 2026-05-04 12:15 | 49.21044 | -123.25096 | 1681 ft | 181 kts | 279° |
| 2026-05-04 12:15 | 49.21208 | -123.27032 | 2003 ft | 189 kts | 279° |
| 2026-05-04 12:15 | 49.21376 | -123.29072 | 2343 ft | 198 kts | 279° |
| 2026-05-04 12:15 | 49.21550 | -123.31231 | 2645 ft | 210 kts | 279° |
| 2026-05-04 12:16 | 49.21734 | -123.33505 | 2908 ft | 223 kts | 279° |
| 2026-05-04 12:16 | 49.21934 | -123.35965 | 3118 ft | 243 kts | 278° |
| 2026-05-04 12:16 | 49.21996 | -123.38583 | 3514 ft | 255 kts | 260° |
| 2026-05-04 12:16 | 49.21282 | -123.41013 | 4103 ft | 259 kts | 230° |
| 2026-05-04 12:17 | 49.19859 | -123.42649 | 4746 ft | 260 kts | 201° |
| 2026-05-04 12:17 | 49.18089 | -123.43050 | 5348 ft | 262 kts | 172° |
| 2026-05-04 12:17 | 49.16410 | -123.42114 | 5992 ft | 261 kts | 143° |
| 2026-05-04 12:17 | 49.15221 | -123.40053 | 6660 ft | 261 kts | 115° |
| 2026-05-04 12:18 | 49.14767 | -123.37417 | 7270 ft | 261 kts | 95° |
| 2026-05-04 12:18 | 49.14610 | -123.34620 | 7672 ft | 273 kts | 94° |
| 2026-05-04 12:18 | 49.14479 | -123.31657 | 8145 ft | 281 kts | 93° |
| 2026-05-04 12:18 | 49.14347 | -123.28700 | 8801 ft | 283 kts | 93° |
| 2026-05-04 12:19 | 49.14207 | -123.25700 | 9444 ft | 285 kts | 93° |
| 2026-05-04 12:19 | 49.14062 | -123.22674 | 10047 ft | 288 kts | 93° |
| 2026-05-04 12:19 | 49.13911 | -123.19612 | 10487 ft | 297 kts | 92° |
| 2026-05-04 12:19 | 49.13752 | -123.16386 | 10752 ft | 311 kts | 93° |
| 2026-05-04 12:20 | 49.13586 | -123.13054 | 11026 ft | 324 kts | 92° |
| 2026-05-04 12:20 | 49.13409 | -123.09556 | 11273 ft | 338 kts | 93° |
| 2026-05-04 12:20 | 49.13225 | -123.05954 | 11732 ft | 344 kts | 93° |
| 2026-05-04 12:20 | 49.13032 | -123.02264 | 12243 ft | 346 kts | 92° |
| 2026-05-04 12:21 | 49.12841 | -122.98617 | 12768 ft | 349 kts | 92° |
| 2026-05-04 12:21 | 49.12645 | -122.94895 | 13277 ft | 353 kts | 92° |
| 2026-05-04 12:21 | 49.12448 | -122.91193 | 13727 ft | 356 kts | 92° |
| 2026-05-04 12:21 | 49.12247 | -122.87415 | 14260 ft | 358 kts | 92° |
| 2026-05-04 12:22 | 49.12043 | -122.83618 | 14730 ft | 361 kts | 92° |
| 2026-05-04 12:22 | 49.11835 | -122.79781 | 15217 ft | 364 kts | 92° |
| 2026-05-04 12:22 | 49.11626 | -122.75955 | 15700 ft | 366 kts | 91° |
| 2026-05-04 12:22 | 49.11415 | -122.72092 | 16139 ft | 369 kts | 91° |
| 2026-05-04 12:23 | 49.11201 | -122.68157 | 16611 ft | 371 kts | 91° |
| 2026-05-04 12:23 | 49.10986 | -122.64273 | 17083 ft | 373 kts | 91° |
| 2026-05-04 12:23 | 49.10766 | -122.60329 | 17533 ft | 375 kts | 91° |
| 2026-05-04 12:23 | 49.10543 | -122.56319 | 17966 ft | 377 kts | 91° |
| 2026-05-04 12:24 | 49.10322 | -122.52377 | 18426 ft | 379 kts | 91° |
| 2026-05-04 12:24 | 49.10096 | -122.48364 | 18845 ft | 382 kts | 91° |
| 2026-05-04 12:24 | 49.09865 | -122.44302 | 19230 ft | 384 kts | 91° |
| 2026-05-04 12:24 | 49.09634 | -122.40281 | 19629 ft | 387 kts | 90° |
| 2026-05-04 12:25 | 49.09396 | -122.36164 | 20015 ft | 390 kts | 90° |
| 2026-05-04 12:25 | 49.09159 | -122.32065 | 20428 ft | 392 kts | 91° |
| 2026-05-04 12:25 | 49.08914 | -122.27869 | 20804 ft | 394 kts | 91° |
| 2026-05-04 12:25 | 49.08671 | -122.23739 | 21159 ft | 397 kts | 91° |
| 2026-05-04 12:26 | 49.08423 | -122.19538 | 21518 ft | 399 kts | 91° |
| 2026-05-04 12:26 | 49.08172 | -122.15321 | 21892 ft | 402 kts | 91° |
| 2026-05-04 12:26 | 49.07919 | -122.11107 | 22265 ft | 403 kts | 91° |
| 2026-05-04 12:26 | 49.07659 | -122.06803 | 22616 ft | 405 kts | 91° |
| 2026-05-04 12:27 | 49.07402 | -122.02554 | 22958 ft | 408 kts | 91° |
| 2026-05-04 12:27 | 49.07140 | -121.98254 | 23306 ft | 410 kts | 91° |
| 2026-05-04 12:27 | 49.06875 | -121.93936 | 23658 ft | 412 kts | 91° |
| 2026-05-04 12:27 | 49.06607 | -121.89582 | 24001 ft | 414 kts | 91° |
| 2026-05-04 12:28 | 49.06337 | -121.85242 | 24354 ft | 416 kts | 91° |
| 2026-05-04 12:28 | 49.06062 | -121.80877 | 24710 ft | 417 kts | 91° |
| 2026-05-04 12:28 | 49.05785 | -121.76482 | 25035 ft | 419 kts | 91° |
| 2026-05-04 12:28 | 49.05504 | -121.72057 | 25367 ft | 421 kts | 90° |
| 2026-05-04 12:29 | 49.05337 | -121.67622 | 25680 ft | 420 kts | 86° |
| 2026-05-04 12:29 | 49.05401 | -121.63196 | 25989 ft | 419 kts | 81° |
| 2026-05-04 12:29 | 49.05699 | -121.58742 | 26303 ft | 418 kts | 77° |
| 2026-05-04 12:29 | 49.06089 | -121.54413 | 26624 ft | 419 kts | 76° |
| 2026-05-04 12:30 | 49.06501 | -121.50023 | 26913 ft | 420 kts | 76° |
| 2026-05-04 12:30 | 49.06916 | -121.45588 | 27238 ft | 422 kts | 76° |
| 2026-05-04 12:30 | 49.07324 | -121.41165 | 27532 ft | 423 kts | 76° |
| 2026-05-04 12:30 | 49.07732 | -121.36713 | 27801 ft | 425 kts | 76° |
| 2026-05-04 12:31 | 49.08134 | -121.32282 | 28070 ft | 426 kts | 77° |
| 2026-05-04 12:31 | 49.08542 | -121.27758 | 28349 ft | 428 kts | 77° |
| 2026-05-04 12:31 | 49.08944 | -121.23261 | 28608 ft | 430 kts | 77° |
| 2026-05-04 12:31 | 49.09344 | -121.18785 | 28864 ft | 431 kts | 77° |
| 2026-05-04 12:32 | 49.09745 | -121.14250 | 29151 ft | 431 kts | 76° |
| 2026-05-04 12:32 | 49.10539 | -121.05199 | 29848 ft | 429 kts | 76° |
| 2026-05-04 12:32 | 49.10930 | -121.00704 | 30205 ft | 427 kts | 76° |
| 2026-05-04 12:33 | 49.11322 | -120.96210 | 30538 ft | 427 kts | 76° |
| 2026-05-04 12:33 | 49.11705 | -120.91792 | 30850 ft | 426 kts | 76° |
| 2026-05-04 12:33 | 49.12090 | -120.87303 | 31185 ft | 424 kts | 76° |
| 2026-05-04 12:33 | 49.12473 | -120.82838 | 31522 ft | 423 kts | 76° |
| 2026-05-04 12:34 | 49.12852 | -120.78404 | 31794 ft | 423 kts | 76° |
| 2026-05-04 12:34 | 49.13224 | -120.74022 | 32030 ft | 423 kts | 75° |
| 2026-05-04 12:34 | 49.13607 | -120.69520 | 32262 ft | 424 kts | 75° |
| 2026-05-04 12:34 | 49.13982 | -120.65067 | 32471 ft | 425 kts | 75° |
| 2026-05-04 12:35 | 49.14353 | -120.60641 | 32708 ft | 425 kts | 75° |
| 2026-05-04 12:35 | 49.14728 | -120.56139 | 32927 ft | 426 kts | 75° |
| 2026-05-04 12:35 | 49.15098 | -120.51698 | 33048 ft | 428 kts | 75° |
| 2026-05-04 12:36 | 49.15838 | -120.42725 | 33060 ft | 428 kts | 75° |
| 2026-05-04 12:36 | 49.16570 | -120.33741 | 33062 ft | 427 kts | 76° |
| 2026-05-04 12:37 | 49.17304 | -120.24660 | 33079 ft | 428 kts | 76° |
| 2026-05-04 12:37 | 49.18027 | -120.15639 | 33067 ft | 430 kts | 76° |
| 2026-05-04 12:38 | 49.18742 | -120.06602 | 33065 ft | 430 kts | 76° |
| 2026-05-04 12:38 | 49.19450 | -119.97568 | 33052 ft | 431 kts | 76° |
| 2026-05-04 12:39 | 49.20155 | -119.88478 | 33034 ft | 431 kts | 76° |
| 2026-05-04 12:39 | 49.20851 | -119.79408 | 33029 ft | 430 kts | 76° |
| 2026-05-04 12:40 | 49.21538 | -119.70350 | 33017 ft | 430 kts | 75° |
| 2026-05-04 12:40 | 49.22218 | -119.61310 | 32999 ft | 431 kts | 75° |
| 2026-05-04 12:41 | 49.22892 | -119.52240 | 32969 ft | 431 kts | 75° |
| 2026-05-04 12:41 | 49.23562 | -119.43130 | 32966 ft | 431 kts | 76° |
| 2026-05-04 12:42 | 49.24220 | -119.34047 | 32953 ft | 431 kts | 76° |
| 2026-05-04 12:42 | 49.24856 | -119.24946 | 32969 ft | 432 kts | 77° |
| 2026-05-04 12:43 | 49.25097 | -119.15701 | 32961 ft | 435 kts | 81° |
| 2026-05-04 12:43 | 49.25203 | -119.06497 | 32947 ft | 436 kts | 81° |
| 2026-05-04 12:44 | 49.25301 | -118.97199 | 32941 ft | 438 kts | 81° |
| 2026-05-04 12:44 | 49.25393 | -118.87967 | 32942 ft | 437 kts | 81° |
| 2026-05-04 12:45 | 49.25480 | -118.78664 | 32938 ft | 438 kts | 81° |
| 2026-05-04 12:45 | 49.25558 | -118.69430 | 32942 ft | 438 kts | 81° |
| 2026-05-04 12:46 | 49.25632 | -118.60107 | 32936 ft | 437 kts | 81° |
| 2026-05-04 12:46 | 49.25697 | -118.50812 | 32926 ft | 438 kts | 81° |
| 2026-05-04 12:47 | 49.25753 | -118.41583 | 32922 ft | 438 kts | 81° |
| 2026-05-04 12:47 | 49.25805 | -118.32240 | 32915 ft | 438 kts | 82° |
| 2026-05-04 12:48 | 49.25848 | -118.22945 | 32907 ft | 438 kts | 82° |
| 2026-05-04 12:48 | 49.25883 | -118.13628 | 32908 ft | 439 kts | 82° |
| 2026-05-04 12:49 | 49.25912 | -118.04350 | 32921 ft | 439 kts | 82° |
| 2026-05-04 12:49 | 49.25933 | -117.95060 | 32933 ft | 439 kts | 82° |
| 2026-05-04 12:50 | 49.25944 | -117.85673 | 32944 ft | 438 kts | 82° |
| 2026-05-04 12:50 | 49.25952 | -117.76400 | 32959 ft | 439 kts | 82° |
| 2026-05-04 12:51 | 49.25950 | -117.67078 | 32966 ft | 441 kts | 82° |
| 2026-05-04 12:51 | 49.25940 | -117.57711 | 32965 ft | 441 kts | 82° |
| 2026-05-04 12:52 | 49.25923 | -117.48332 | 32961 ft | 441 kts | 82° |
| 2026-05-04 12:52 | 49.25898 | -117.38971 | 32952 ft | 441 kts | 82° |
| 2026-05-04 12:53 | 49.25867 | -117.29583 | 32945 ft | 443 kts | 83° |
| 2026-05-04 12:53 | 49.25826 | -117.20197 | 32941 ft | 443 kts | 82° |
| 2026-05-04 12:54 | 49.25777 | -117.10764 | 32968 ft | 442 kts | 82° |
| 2026-05-04 12:54 | 49.25724 | -117.01404 | 33009 ft | 442 kts | 83° |
| 2026-05-04 12:55 | 49.25661 | -116.91990 | 33015 ft | 444 kts | 83° |
| 2026-05-04 12:55 | 49.25591 | -116.82608 | 32994 ft | 444 kts | 83° |
| 2026-05-04 12:56 | 49.25510 | -116.73144 | 32976 ft | 444 kts | 82° |
| 2026-05-04 12:56 | 49.25425 | -116.63768 | 32979 ft | 445 kts | 83° |
| 2026-05-04 12:57 | 49.25333 | -116.54290 | 32984 ft | 446 kts | 83° |
| 2026-05-04 12:57 | 49.25229 | -116.44878 | 32989 ft | 446 kts | 83° |
| 2026-05-04 12:58 | 49.25121 | -116.35438 | 32990 ft | 446 kts | 83° |
| 2026-05-04 12:58 | 49.25002 | -116.25829 | 32984 ft | 447 kts | 83° |
| 2026-05-04 12:59 | 49.24878 | -116.16368 | 32984 ft | 448 kts | 83° |
| 2026-05-04 12:59 | 49.24745 | -116.06879 | 32984 ft | 449 kts | 83° |
| 2026-05-04 13:00 | 49.24603 | -115.97372 | 32989 ft | 450 kts | 84° |
| 2026-05-04 13:00 | 49.24454 | -115.87852 | 32996 ft | 449 kts | 83° |
| 2026-05-04 13:01 | 49.24296 | -115.78332 | 33003 ft | 448 kts | 83° |
| 2026-05-04 13:01 | 49.24131 | -115.68829 | 33005 ft | 448 kts | 83° |
| 2026-05-04 13:02 | 49.23958 | -115.59325 | 33006 ft | 449 kts | 83° |
| 2026-05-04 13:02 | 49.23778 | -115.49772 | 33007 ft | 449 kts | 83° |
| 2026-05-04 13:03 | 49.23589 | -115.40274 | 33006 ft | 449 kts | 83° |
| 2026-05-04 13:03 | 49.23396 | -115.30769 | 33006 ft | 451 kts | 84° |
| 2026-05-04 13:04 | 49.23189 | -115.21204 | 33015 ft | 451 kts | 83° |
| 2026-05-04 13:04 | 49.22976 | -115.11634 | 33013 ft | 452 kts | 83° |
| 2026-05-04 13:05 | 49.22755 | -115.02036 | 33020 ft | 451 kts | 83° |
| 2026-05-04 13:05 | 49.22526 | -114.92472 | 33019 ft | 451 kts | 83° |
| 2026-05-04 13:06 | 49.22309 | -114.83668 | 33024 ft | 453 kts | 83° |
| 2026-05-04 13:06 | 49.22067 | -114.73978 | 33234 ft | 459 kts | 84° |
| 2026-05-04 13:06 | 49.21938 | -114.69111 | 33445 ft | 459 kts | 84° |
| 2026-05-04 13:07 | 49.21806 | -114.64260 | 33704 ft | 458 kts | 83° |
| 2026-05-04 13:07 | 49.21675 | -114.59438 | 33949 ft | 458 kts | 83° |
| 2026-05-04 13:07 | 49.21540 | -114.54594 | 34205 ft | 457 kts | 83° |
| 2026-05-04 13:07 | 49.21405 | -114.49748 | 34461 ft | 456 kts | 83° |
| 2026-05-04 13:08 | 49.21268 | -114.44915 | 34659 ft | 456 kts | 83° |
| 2026-05-04 13:08 | 49.21129 | -114.40050 | 34857 ft | 455 kts | 83° |
| 2026-05-04 13:08 | 49.20989 | -114.35269 | 35020 ft | 455 kts | 83° |
| 2026-05-04 13:09 | 49.20704 | -114.25581 | 35035 ft | 456 kts | 84° |
| 2026-05-04 13:09 | 49.20408 | -114.15906 | 35048 ft | 456 kts | 84° |
| 2026-05-04 13:10 | 49.20104 | -114.06212 | 35052 ft | 456 kts | 84° |
| 2026-05-04 13:10 | 49.19792 | -113.96529 | 35062 ft | 456 kts | 84° |
| 2026-05-04 13:11 | 49.19474 | -113.86855 | 35070 ft | 457 kts | 84° |
| 2026-05-04 13:11 | 49.19146 | -113.77165 | 35072 ft | 458 kts | 84° |
| 2026-05-04 13:12 | 49.18810 | -113.67509 | 35072 ft | 457 kts | 84° |
| 2026-05-04 13:12 | 49.18470 | -113.57838 | 35076 ft | 459 kts | 84° |
| 2026-05-04 13:13 | 49.18113 | -113.48119 | 35073 ft | 459 kts | 84° |
| 2026-05-04 13:13 | 49.17752 | -113.38414 | 35066 ft | 460 kts | 84° |
| 2026-05-04 13:14 | 49.17379 | -113.28616 | 35067 ft | 463 kts | 85° |
| 2026-05-04 13:14 | 49.16999 | -113.18869 | 35065 ft | 462 kts | 85° |
| 2026-05-04 13:15 | 49.16611 | -113.09052 | 35058 ft | 465 kts | 85° |
| 2026-05-04 13:15 | 49.16209 | -112.99248 | 35053 ft | 464 kts | 85° |
| 2026-05-04 13:16 | 49.15800 | -112.89445 | 35051 ft | 464 kts | 85° |
| 2026-05-04 13:16 | 49.15382 | -112.79623 | 35050 ft | 465 kts | 85° |
| 2026-05-04 13:17 | 49.14958 | -112.69785 | 35048 ft | 465 kts | 85° |
| 2026-05-04 13:17 | 49.14525 | -112.59959 | 35041 ft | 466 kts | 85° |
| 2026-05-04 13:18 | 49.14084 | -112.50115 | 35037 ft | 468 kts | 85° |
| 2026-05-04 13:18 | 49.13628 | -112.40198 | 35031 ft | 468 kts | 85° |
| 2026-05-04 13:19 | 49.13166 | -112.30284 | 35033 ft | 469 kts | 86° |
| 2026-05-04 13:19 | 49.12691 | -112.20307 | 35030 ft | 470 kts | 86° |
| 2026-05-04 13:20 | 49.12214 | -112.10423 | 35025 ft | 471 kts | 86° |
| 2026-05-04 13:20 | 49.11723 | -112.00459 | 35023 ft | 472 kts | 86° |
| 2026-05-04 13:21 | 49.11221 | -111.90484 | 35016 ft | 473 kts | 86° |
| 2026-05-04 13:21 | 49.10710 | -111.80508 | 35016 ft | 474 kts | 86° |
| 2026-05-04 13:22 | 49.10189 | -111.70468 | 35018 ft | 474 kts | 87° |
| 2026-05-04 13:22 | 49.09662 | -111.60500 | 35017 ft | 475 kts | 86° |
| 2026-05-04 13:23 | 49.09127 | -111.50506 | 35016 ft | 476 kts | 86° |
| 2026-05-04 13:23 | 49.08581 | -111.40470 | 35015 ft | 476 kts | 87° |
| 2026-05-04 13:24 | 49.08024 | -111.30413 | 35010 ft | 478 kts | 88° |
| 2026-05-04 13:24 | 49.07455 | -111.20340 | 35021 ft | 477 kts | 88° |
| 2026-05-04 13:25 | 49.06591 | -111.05286 | 35016 ft | 478 kts | 88° |
| 2026-05-04 13:25 | 49.06003 | -110.95183 | 35027 ft | 479 kts | 88° |
| 2026-05-04 13:26 | 49.05405 | -110.85136 | 35023 ft | 480 kts | 88° |
| 2026-05-04 13:26 | 49.04794 | -110.75035 | 35016 ft | 481 kts | 88° |
| 2026-05-04 13:27 | 49.04177 | -110.64936 | 35023 ft | 482 kts | 88° |
| 2026-05-04 13:27 | 49.03548 | -110.54775 | 35021 ft | 483 kts | 88° |
| 2026-05-04 13:28 | 49.02906 | -110.44609 | 35017 ft | 483 kts | 88° |
| 2026-05-04 13:28 | 49.02262 | -110.34508 | 35010 ft | 483 kts | 88° |
| 2026-05-04 13:29 | 49.01608 | -110.24345 | 35019 ft | 486 kts | 89° |
| 2026-05-04 13:29 | 49.00937 | -110.14168 | 35005 ft | 486 kts | 89° |
| 2026-05-04 13:30 | 49.00288 | -110.03948 | 35008 ft | 484 kts | 86° |
| 2026-05-04 13:30 | 49.00232 | -109.93842 | 34982 ft | 477 kts | 79° |
| 2026-05-04 13:31 | 49.00679 | -109.83741 | 34996 ft | 477 kts | 78° |
| 2026-05-04 13:31 | 49.01144 | -109.73699 | 34987 ft | 478 kts | 78° |
| 2026-05-04 13:32 | 49.01587 | -109.63590 | 34973 ft | 480 kts | 78° |
| 2026-05-04 13:32 | 49.02016 | -109.53416 | 34967 ft | 481 kts | 78° |
| 2026-05-04 13:33 | 49.02437 | -109.43264 | 34986 ft | 482 kts | 78° |
| 2026-05-04 13:33 | 49.02849 | -109.33087 | 34967 ft | 483 kts | 79° |
| 2026-05-04 13:34 | 49.03249 | -109.22903 | 34944 ft | 483 kts | 79° |
| 2026-05-04 13:34 | 49.03644 | -109.12723 | 34967 ft | 486 kts | 79° |
| 2026-05-04 13:35 | 49.04218 | -108.97336 | 34976 ft | 486 kts | 79° |
| 2026-05-04 13:36 | 49.04587 | -108.87107 | 34959 ft | 486 kts | 79° |
| 2026-05-04 13:36 | 49.04953 | -108.76866 | 34971 ft | 487 kts | 79° |
| 2026-05-04 13:37 | 49.05307 | -108.66589 | 34949 ft | 488 kts | 79° |
| 2026-05-04 13:37 | 49.05651 | -108.56292 | 34948 ft | 487 kts | 79° |
| 2026-05-04 13:38 | 49.05990 | -108.45961 | 34926 ft | 489 kts | 79° |
| 2026-05-04 13:38 | 49.06318 | -108.35642 | 34951 ft | 490 kts | 79° |
| 2026-05-04 13:39 | 49.06643 | -108.25254 | 34912 ft | 492 kts | 80° |
| 2026-05-04 13:39 | 49.06955 | -108.14899 | 34927 ft | 494 kts | 80° |
| 2026-05-04 13:40 | 49.07258 | -108.04448 | 34910 ft | 495 kts | 80° |
| 2026-05-04 13:40 | 49.07551 | -107.93971 | 34912 ft | 495 kts | 80° |
| 2026-05-04 13:41 | 49.07836 | -107.83535 | 34925 ft | 495 kts | 80° |
| 2026-05-04 13:41 | 49.08113 | -107.73114 | 34895 ft | 495 kts | 80° |
| 2026-05-04 13:42 | 49.08512 | -107.57397 | 34913 ft | 496 kts | 81° |
| 2026-05-04 13:42 | 49.08764 | -107.46954 | 34900 ft | 496 kts | 81° |
| 2026-05-04 13:43 | 49.09006 | -107.36424 | 34950 ft | 495 kts | 81° |
| 2026-05-04 13:43 | 49.09241 | -107.25977 | 34890 ft | 496 kts | 81° |
| 2026-05-04 13:44 | 49.09468 | -107.15434 | 34880 ft | 497 kts | 81° |
| 2026-05-04 13:44 | 49.09683 | -107.04934 | 34892 ft | 497 kts | 82° |
| 2026-05-04 13:45 | 49.09889 | -106.94428 | 34878 ft | 498 kts | 81° |
| 2026-05-04 13:45 | 49.10083 | -106.83954 | 34880 ft | 497 kts | 81° |
| 2026-05-04 13:46 | 49.10272 | -106.73460 | 34874 ft | 497 kts | 82° |
| 2026-05-04 13:46 | 49.10446 | -106.63004 | 34852 ft | 495 kts | 82° |
| 2026-05-04 13:47 | 49.10614 | -106.52548 | 34886 ft | 496 kts | 82° |
| 2026-05-04 13:47 | 49.10774 | -106.42013 | 34852 ft | 495 kts | 82° |
| 2026-05-04 13:48 | 49.10923 | -106.31555 | 34898 ft | 496 kts | 83° |
| 2026-05-04 13:48 | 49.11064 | -106.21036 | 34855 ft | 497 kts | 83° |
| 2026-05-04 13:49 | 49.11191 | -106.10551 | 34861 ft | 496 kts | 83° |
| 2026-05-04 13:49 | 49.11315 | -106.00060 | 34849 ft | 497 kts | 83° |
| 2026-05-04 13:50 | 49.11423 | -105.89613 | 34884 ft | 497 kts | 83° |
| 2026-05-04 13:50 | 49.11526 | -105.79042 | 34851 ft | 496 kts | 83° |
| 2026-05-04 13:51 | 49.11616 | -105.68614 | 34867 ft | 497 kts | 83° |
| 2026-05-04 13:51 | 49.11700 | -105.58032 | 34857 ft | 498 kts | 83° |
| 2026-05-04 13:52 | 49.11807 | -105.42258 | 34871 ft | 499 kts | 83° |
| 2026-05-04 13:53 | 49.11864 | -105.31732 | 34853 ft | 500 kts | 84° |
| 2026-05-04 13:53 | 49.11912 | -105.21075 | 34840 ft | 499 kts | 84° |
| 2026-05-04 13:54 | 49.11968 | -105.05250 | 34847 ft | 500 kts | 85° |
| 2026-05-04 13:55 | 49.12000 | -104.89442 | 34841 ft | 499 kts | 84° |
| 2026-05-04 13:55 | 49.12014 | -104.73634 | 34824 ft | 498 kts | 85° |
| 2026-05-04 13:56 | 49.12006 | -104.63084 | 34824 ft | 497 kts | 85° |
| 2026-05-04 13:57 | 49.11982 | -104.47356 | 34834 ft | 496 kts | 85° |
| 2026-05-04 13:58 | 49.11922 | -104.26263 | 34831 ft | 498 kts | 86° |
| 2026-05-04 13:58 | 49.11846 | -104.10487 | 34830 ft | 498 kts | 86° |
| 2026-05-04 13:59 | 49.11783 | -103.99935 | 34819 ft | 499 kts | 86° |
| 2026-05-04 14:00 | 49.11671 | -103.84182 | 34835 ft | 498 kts | 86° |
| 2026-05-04 14:00 | 49.11543 | -103.68357 | 34821 ft | 498 kts | 86° |
| 2026-05-04 14:01 | 49.11441 | -103.57858 | 34827 ft | 498 kts | 86° |
| 2026-05-04 14:02 | 49.11272 | -103.42011 | 34809 ft | 498 kts | 86° |
| 2026-05-04 14:02 | 49.11151 | -103.31517 | 34809 ft | 497 kts | 87° |
| 2026-05-04 14:03 | 49.11018 | -103.21030 | 34820 ft | 498 kts | 87° |
| 2026-05-04 14:03 | 49.10874 | -103.10478 | 34812 ft | 498 kts | 88° |
| 2026-05-04 14:04 | 49.10642 | -102.94757 | 34817 ft | 497 kts | 88° |
| 2026-05-04 14:04 | 49.10476 | -102.84223 | 34820 ft | 498 kts | 88° |
| 2026-05-04 14:05 | 49.10210 | -102.68469 | 34808 ft | 498 kts | 88° |
| 2026-05-04 14:06 | 49.10017 | -102.57901 | 34806 ft | 498 kts | 88° |
| 2026-05-04 14:06 | 49.09817 | -102.47375 | 34807 ft | 498 kts | 88° |
| 2026-05-04 14:07 | 49.09607 | -102.36890 | 34789 ft | 497 kts | 88° |
| 2026-05-04 14:07 | 49.09388 | -102.26355 | 34786 ft | 497 kts | 88° |
| 2026-05-04 14:08 | 49.09162 | -102.15897 | 34789 ft | 497 kts | 88° |
| 2026-05-04 14:08 | 49.08923 | -102.05373 | 34784 ft | 497 kts | 89° |
| 2026-05-04 14:09 | 49.08549 | -101.89664 | 34775 ft | 497 kts | 89° |
| 2026-05-04 14:10 | 49.08154 | -101.73977 | 34772 ft | 496 kts | 89° |
| 2026-05-04 14:10 | 49.07878 | -101.63465 | 34773 ft | 496 kts | 89° |
| 2026-05-04 14:11 | 49.07595 | -101.53054 | 34772 ft | 496 kts | 89° |
| 2026-05-04 14:11 | 49.07149 | -101.37332 | 34773 ft | 497 kts | 89° |
| 2026-05-04 14:12 | 49.06840 | -101.26834 | 34779 ft | 497 kts | 90° |
| 2026-05-04 14:13 | 49.06360 | -101.11127 | 34770 ft | 496 kts | 90° |
| 2026-05-04 14:13 | 49.06027 | -101.00691 | 34772 ft | 495 kts | 90° |
| 2026-05-04 14:14 | 49.05687 | -100.90272 | 34758 ft | 494 kts | 90° |
| 2026-05-04 14:14 | 49.05160 | -100.74632 | 34751 ft | 494 kts | 90° |
| 2026-05-04 14:15 | 49.04422 | -100.53783 | 34734 ft | 494 kts | 90° |
| 2026-05-04 14:16 | 49.03847 | -100.38198 | 34714 ft | 494 kts | 90° |
| 2026-05-04 14:17 | 49.03245 | -100.22480 | 34709 ft | 495 kts | 91° |
| 2026-05-04 14:18 | 49.02627 | -100.06905 | 34697 ft | 494 kts | 91° |
| 2026-05-04 14:19 | 49.01768 | -99.86050 | 34698 ft | 495 kts | 91° |
| 2026-05-04 14:19 | 49.01324 | -99.75616 | 34701 ft | 496 kts | 91° |
| 2026-05-04 14:20 | 49.00867 | -99.65160 | 34704 ft | 495 kts | 91° |
| 2026-05-04 14:20 | 49.00404 | -99.54786 | 34702 ft | 495 kts | 91° |
| 2026-05-04 14:21 | 48.99693 | -99.39172 | 34694 ft | 494 kts | 91° |
| 2026-05-04 14:21 | 48.99206 | -99.28725 | 34679 ft | 494 kts | 92° |
| 2026-05-04 14:22 | 48.98713 | -99.18349 | 34686 ft | 494 kts | 92° |
| 2026-05-04 14:22 | 48.98208 | -99.07929 | 34680 ft | 494 kts | 92° |
| 2026-05-04 14:23 | 48.97433 | -98.92333 | 34687 ft | 494 kts | 92° |
| 2026-05-04 14:24 | 48.96904 | -98.81949 | 34682 ft | 495 kts | 92° |
| 2026-05-04 14:24 | 48.96369 | -98.71585 | 34681 ft | 495 kts | 92° |
| 2026-05-04 14:25 | 48.95822 | -98.61168 | 34674 ft | 495 kts | 92° |
| 2026-05-04 14:25 | 48.94987 | -98.45601 | 34655 ft | 495 kts | 92° |
| 2026-05-04 14:26 | 48.94411 | -98.35156 | 34666 ft | 495 kts | 92° |
| 2026-05-04 14:26 | 48.93832 | -98.24770 | 34655 ft | 495 kts | 93° |
| 2026-05-04 14:27 | 48.93243 | -98.14374 | 34660 ft | 495 kts | 93° |
| 2026-05-04 14:27 | 48.92645 | -98.04000 | 34652 ft | 495 kts | 93° |
| 2026-05-04 14:28 | 48.92036 | -97.93604 | 34645 ft | 495 kts | 93° |
| 2026-05-04 14:28 | 48.91421 | -97.83263 | 34657 ft | 495 kts | 93° |
| 2026-05-04 14:29 | 48.90156 | -97.62463 | 34659 ft | 496 kts | 93° |
| 2026-05-04 14:30 | 48.89506 | -97.52039 | 34656 ft | 494 kts | 93° |
| 2026-05-04 14:31 | 48.88522 | -97.36519 | 34647 ft | 494 kts | 93° |
| 2026-05-04 14:32 | 48.87174 | -97.15815 | 34634 ft | 494 kts | 94° |
| 2026-05-04 14:32 | 48.86564 | -97.05434 | 34634 ft | 494 kts | 92° |
| 2026-05-04 14:33 | 48.86099 | -96.95058 | 34630 ft | 494 kts | 92° |
| 2026-05-04 14:33 | 48.85624 | -96.84715 | 34631 ft | 494 kts | 92° |
| 2026-05-04 14:34 | 48.85123 | -96.74352 | 34627 ft | 494 kts | 92° |
| 2026-05-04 14:34 | 48.84608 | -96.63992 | 34628 ft | 494 kts | 92° |
| 2026-05-04 14:35 | 48.84082 | -96.53622 | 34610 ft | 494 kts | 92° |
| 2026-05-04 14:35 | 48.83549 | -96.43301 | 34603 ft | 494 kts | 92° |
| 2026-05-04 14:36 | 48.83002 | -96.32894 | 34593 ft | 493 kts | 93° |
| 2026-05-04 14:36 | 48.82449 | -96.22550 | 34604 ft | 493 kts | 93° |
| 2026-05-04 14:37 | 48.81889 | -96.12268 | 34589 ft | 492 kts | 94° |
| 2026-05-04 14:37 | 48.81319 | -96.01962 | 34589 ft | 493 kts | 94° |
| 2026-05-04 14:38 | 48.80738 | -95.91622 | 34582 ft | 492 kts | 94° |
| 2026-05-04 14:38 | 48.80149 | -95.81307 | 34567 ft | 493 kts | 94° |
| 2026-05-04 14:39 | 48.79572 | -95.71368 | 34565 ft | 492 kts | 94° |
| 2026-05-04 14:39 | 48.78967 | -95.61092 | 34576 ft | 492 kts | 94° |
| 2026-05-04 14:40 | 48.78037 | -95.45606 | 34568 ft | 492 kts | 94° |
| 2026-05-04 14:40 | 48.77409 | -95.35321 | 34557 ft | 492 kts | 94° |
| 2026-05-04 14:41 | 48.76768 | -95.24973 | 34552 ft | 492 kts | 95° |
| 2026-05-04 14:42 | 48.75466 | -95.04470 | 34548 ft | 491 kts | 95° |
| 2026-05-04 14:42 | 48.74794 | -94.94133 | 34550 ft | 491 kts | 95° |
| 2026-05-04 14:43 | 48.74120 | -94.83888 | 34539 ft | 491 kts | 95° |
| 2026-05-04 14:43 | 48.73437 | -94.73624 | 34527 ft | 491 kts | 95° |
| 2026-05-04 14:44 | 48.72746 | -94.63377 | 34525 ft | 491 kts | 95° |
| 2026-05-04 14:44 | 48.72043 | -94.53097 | 34529 ft | 491 kts | 95° |
| 2026-05-04 14:45 | 48.71333 | -94.42870 | 34513 ft | 491 kts | 95° |
| 2026-05-04 14:45 | 48.70611 | -94.32588 | 34508 ft | 490 kts | 96° |
| 2026-05-04 14:46 | 48.69883 | -94.22342 | 34511 ft | 490 kts | 96° |
| 2026-05-04 14:46 | 48.69146 | -94.12104 | 34493 ft | 490 kts | 96° |
| 2026-05-04 14:47 | 48.68397 | -94.01850 | 34499 ft | 490 kts | 96° |
| 2026-05-04 14:47 | 48.67643 | -93.91631 | 34501 ft | 490 kts | 96° |
| 2026-05-04 14:48 | 48.66882 | -93.81451 | 34491 ft | 490 kts | 96° |
| 2026-05-04 14:48 | 48.66106 | -93.71218 | 34483 ft | 490 kts | 96° |
| 2026-05-04 14:49 | 48.65328 | -93.61036 | 34469 ft | 490 kts | 96° |
| 2026-05-04 14:49 | 48.64539 | -93.50861 | 34464 ft | 491 kts | 96° |
| 2026-05-04 14:50 | 48.63734 | -93.40590 | 34456 ft | 491 kts | 96° |
| 2026-05-04 14:50 | 48.62928 | -93.30406 | 34450 ft | 490 kts | 97° |
| 2026-05-04 14:51 | 48.62109 | -93.20199 | 34451 ft | 491 kts | 97° |
| 2026-05-04 14:51 | 48.61282 | -93.10004 | 34455 ft | 491 kts | 97° |
| 2026-05-04 14:52 | 48.60444 | -92.99777 | 34443 ft | 491 kts | 97° |
| 2026-05-04 14:52 | 48.59597 | -92.89563 | 34437 ft | 491 kts | 97° |
| 2026-05-04 14:53 | 48.58744 | -92.79404 | 34430 ft | 491 kts | 97° |
| 2026-05-04 14:53 | 48.57880 | -92.69202 | 34423 ft | 491 kts | 97° |
| 2026-05-04 14:54 | 48.57006 | -92.59006 | 34414 ft | 491 kts | 97° |
| 2026-05-04 14:54 | 48.56125 | -92.48841 | 34411 ft | 492 kts | 97° |
| 2026-05-04 14:55 | 48.55235 | -92.38656 | 34410 ft | 491 kts | 97° |
| 2026-05-04 14:55 | 48.54330 | -92.28413 | 34403 ft | 491 kts | 98° |
| 2026-05-04 14:56 | 48.53426 | -92.18281 | 34407 ft | 491 kts | 98° |
| 2026-05-04 14:56 | 48.52504 | -92.08067 | 34403 ft | 491 kts | 98° |
| 2026-05-04 14:57 | 48.51576 | -91.97890 | 34401 ft | 491 kts | 98° |
| 2026-05-04 14:57 | 48.50645 | -91.87780 | 34402 ft | 490 kts | 98° |
| 2026-05-04 14:58 | 48.49698 | -91.77592 | 34386 ft | 491 kts | 98° |
| 2026-05-04 14:58 | 48.48747 | -91.67451 | 34387 ft | 491 kts | 98° |
| 2026-05-04 14:59 | 48.47786 | -91.57328 | 34381 ft | 490 kts | 98° |
| 2026-05-04 15:00 | 48.46323 | -91.42073 | 34372 ft | 490 kts | 98° |
| 2026-05-04 15:00 | 48.45341 | -91.31967 | 34356 ft | 491 kts | 99° |
| 2026-05-04 15:01 | 48.43847 | -91.16756 | 34350 ft | 491 kts | 99° |
| 2026-05-04 15:01 | 48.42835 | -91.06567 | 34354 ft | 490 kts | 99° |
| 2026-05-04 15:02 | 48.41821 | -90.96464 | 34349 ft | 489 kts | 99° |
| 2026-05-04 15:02 | 48.40794 | -90.86316 | 34342 ft | 490 kts | 99° |
| 2026-05-04 15:03 | 48.39767 | -90.76257 | 34332 ft | 491 kts | 99° |
| 2026-05-04 15:03 | 48.38723 | -90.66125 | 34327 ft | 491 kts | 99° |
| 2026-05-04 15:04 | 48.37674 | -90.56042 | 34322 ft | 491 kts | 99° |
| 2026-05-04 15:04 | 48.36608 | -90.45886 | 34314 ft | 491 kts | 99° |
| 2026-05-04 15:05 | 48.35545 | -90.35834 | 34314 ft | 492 kts | 99° |
| 2026-05-04 15:05 | 48.34467 | -90.25716 | 34307 ft | 492 kts | 101° |
| 2026-05-04 15:06 | 48.33374 | -90.15580 | 34303 ft | 491 kts | 101° |
| 2026-05-04 15:07 | 48.31726 | -90.00449 | 34294 ft | 492 kts | 100° |
| 2026-05-04 15:07 | 48.30616 | -89.90355 | 34295 ft | 492 kts | 100° |
| 2026-05-04 15:08 | 48.29494 | -89.80230 | 34285 ft | 491 kts | 101° |
| 2026-05-04 15:08 | 48.28359 | -89.70077 | 34283 ft | 491 kts | 101° |
| 2026-05-04 15:09 | 48.27218 | -89.59957 | 34287 ft | 492 kts | 101° |
| 2026-05-04 15:09 | 48.26069 | -89.49859 | 34294 ft | 492 kts | 101° |
| 2026-05-04 15:10 | 48.24317 | -89.34708 | 34293 ft | 492 kts | 102° |
| 2026-05-04 15:11 | 48.22527 | -89.19566 | 34300 ft | 493 kts | 102° |
| 2026-05-04 15:11 | 48.21317 | -89.09468 | 34285 ft | 493 kts | 102° |
| 2026-05-04 15:12 | 48.20101 | -88.99377 | 34283 ft | 493 kts | 102° |
| 2026-05-04 15:12 | 48.18885 | -88.89360 | 34286 ft | 493 kts | 102° |
| 2026-05-04 15:13 | 48.17653 | -88.79288 | 34283 ft | 494 kts | 102° |
| 2026-05-04 15:13 | 48.16410 | -88.69210 | 34276 ft | 494 kts | 102° |
| 2026-05-04 15:14 | 48.15153 | -88.59104 | 34279 ft | 495 kts | 102° |
| 2026-05-04 15:14 | 48.13892 | -88.49013 | 34302 ft | 494 kts | 102° |
| 2026-05-04 15:15 | 48.12619 | -88.38924 | 34286 ft | 495 kts | 102° |
| 2026-05-04 15:15 | 48.11341 | -88.28857 | 34277 ft | 496 kts | 103° |
| 2026-05-04 15:16 | 48.09396 | -88.13678 | 34289 ft | 496 kts | 104° |
| 2026-05-04 15:17 | 48.07422 | -87.98483 | 34291 ft | 498 kts | 104° |
| 2026-05-04 15:17 | 48.05432 | -87.83276 | 34305 ft | 501 kts | 104° |
| 2026-05-04 15:18 | 48.04083 | -87.73083 | 34276 ft | 500 kts | 104° |
| 2026-05-04 15:19 | 48.02047 | -87.57844 | 34297 ft | 503 kts | 104° |
| 2026-05-04 15:19 | 47.99982 | -87.42516 | 34283 ft | 504 kts | 104° |
| 2026-05-04 15:20 | 47.98584 | -87.32263 | 34302 ft | 506 kts | 105° |
| 2026-05-04 15:20 | 47.97184 | -87.22016 | 34314 ft | 505 kts | 105° |
| 2026-05-04 15:21 | 47.95777 | -87.11809 | 34313 ft | 506 kts | 105° |
| 2026-05-04 15:22 | 47.93628 | -86.96378 | 34297 ft | 510 kts | 105° |
| 2026-05-04 15:22 | 47.91450 | -86.80891 | 34342 ft | 509 kts | 105° |
| 2026-05-04 15:23 | 47.90001 | -86.70675 | 34337 ft | 509 kts | 105° |
| 2026-05-04 15:23 | 47.88527 | -86.60320 | 34340 ft | 508 kts | 105° |
| 2026-05-04 15:24 | 47.85567 | -86.39854 | 34352 ft | 508 kts | 106° |
| 2026-05-04 15:25 | 47.84079 | -86.29614 | 34358 ft | 507 kts | 107° |
| 2026-05-04 15:26 | 47.81837 | -86.14380 | 34367 ft | 506 kts | 107° |
| 2026-05-04 15:26 | 47.79566 | -85.99055 | 34351 ft | 505 kts | 107° |
| 2026-05-04 15:27 | 47.77287 | -85.83860 | 34311 ft | 505 kts | 107° |
| 2026-05-04 15:28 | 47.74974 | -85.68590 | 34358 ft | 508 kts | 107° |
| 2026-05-04 15:29 | 47.72632 | -85.53253 | 34349 ft | 507 kts | 108° |
| 2026-05-04 15:30 | 47.67088 | -85.17548 | 34375 ft | 510 kts | 108° |
| 2026-05-04 15:31 | 47.64687 | -85.02308 | 34376 ft | 510 kts | 108° |
| 2026-05-04 15:32 | 47.60621 | -84.76872 | 34374 ft | 508 kts | 107° |
| 2026-05-04 15:34 | 47.56509 | -84.51517 | 34387 ft | 508 kts | 107° |
| 2026-05-04 15:34 | 47.54001 | -84.36256 | 34393 ft | 509 kts | 106° |
| 2026-05-04 15:35 | 47.51486 | -84.21034 | 34392 ft | 507 kts | 107° |
| 2026-05-04 15:36 | 47.48950 | -84.05862 | 34397 ft | 506 kts | 107° |
| 2026-05-04 15:36 | 47.47261 | -83.95834 | 34398 ft | 506 kts | 107° |
| 2026-05-04 15:37 | 47.45565 | -83.85787 | 34402 ft | 505 kts | 107° |
| 2026-05-04 15:37 | 47.44711 | -83.80760 | 34218 ft | 504 kts | 106° |
| 2026-05-04 15:37 | 47.43850 | -83.75739 | 34257 ft | 502 kts | 106° |
| 2026-05-04 15:38 | 47.43005 | -83.70801 | 34376 ft | 499 kts | 106° |
| 2026-05-04 15:38 | 47.42161 | -83.65884 | 34705 ft | 497 kts | 106° |
| 2026-05-04 15:38 | 47.41306 | -83.60921 | 35028 ft | 496 kts | 105° |
| 2026-05-04 15:38 | 47.40463 | -83.56029 | 34846 ft | 495 kts | 105° |
| 2026-05-04 15:39 | 47.39621 | -83.51151 | 34727 ft | 495 kts | 105° |
| 2026-05-04 15:39 | 47.38755 | -83.46153 | 34638 ft | 496 kts | 105° |
| 2026-05-04 15:39 | 47.37049 | -83.36350 | 34446 ft | 496 kts | 105° |
| 2026-05-04 15:40 | 47.36176 | -83.31345 | 34392 ft | 496 kts | 106° |
| 2026-05-04 15:40 | 47.34449 | -83.21503 | 34366 ft | 495 kts | 105° |
| 2026-05-04 15:41 | 47.32717 | -83.11697 | 34417 ft | 495 kts | 105° |
| 2026-05-04 15:41 | 47.30967 | -83.01846 | 34432 ft | 495 kts | 105° |
| 2026-05-04 15:42 | 47.29202 | -82.91959 | 34446 ft | 495 kts | 105° |
| 2026-05-04 15:42 | 47.27443 | -82.82156 | 34454 ft | 495 kts | 105° |
| 2026-05-04 15:43 | 47.25682 | -82.72394 | 34452 ft | 495 kts | 105° |
| 2026-05-04 15:43 | 47.23901 | -82.62575 | 34455 ft | 495 kts | 105° |
| 2026-05-04 15:44 | 47.22127 | -82.52850 | 34460 ft | 495 kts | 105° |
| 2026-05-04 15:44 | 47.20343 | -82.43109 | 34465 ft | 495 kts | 105° |
| 2026-05-04 15:45 | 47.18536 | -82.33325 | 34474 ft | 494 kts | 105° |
| 2026-05-04 15:45 | 47.16716 | -82.23525 | 34490 ft | 494 kts | 105° |
| 2026-05-04 15:46 | 47.14903 | -82.13796 | 34503 ft | 494 kts | 105° |
| 2026-05-04 15:46 | 47.13079 | -82.04059 | 34511 ft | 494 kts | 105° |
| 2026-05-04 15:47 | 47.11230 | -81.94244 | 34519 ft | 494 kts | 105° |
| 2026-05-04 15:47 | 47.09387 | -81.84505 | 34528 ft | 494 kts | 105° |
| 2026-05-04 15:48 | 47.07536 | -81.74788 | 34539 ft | 493 kts | 105° |
| 2026-05-04 15:48 | 47.04769 | -81.60336 | 34549 ft | 491 kts | 105° |
| 2026-05-04 15:49 | 47.02898 | -81.50617 | 34555 ft | 491 kts | 104° |
| 2026-05-04 15:49 | 47.01031 | -81.40969 | 34561 ft | 491 kts | 104° |
| 2026-05-04 15:50 | 46.99179 | -81.31445 | 34566 ft | 490 kts | 105° |
| 2026-05-04 15:50 | 46.98802 | -81.29445 | 34086 ft | 490 kts | 109° |
| 2026-05-04 15:50 | 46.97892 | -81.24671 | 34289 ft | 491 kts | 109° |
| 2026-05-04 15:51 | 46.95966 | -81.14955 | 34409 ft | 502 kts | 109° |
| 2026-05-04 15:51 | 46.93998 | -81.05086 | 34485 ft | 506 kts | 108° |
| 2026-05-04 15:52 | 46.92027 | -80.95191 | 34552 ft | 502 kts | 106° |
| 2026-05-04 15:52 | 46.90093 | -80.85473 | 34555 ft | 498 kts | 106° |
| 2026-05-04 15:53 | 46.88150 | -80.75729 | 34567 ft | 497 kts | 105° |
| 2026-05-04 15:53 | 46.86204 | -80.66039 | 34572 ft | 496 kts | 105° |
| 2026-05-04 15:54 | 46.84251 | -80.56374 | 34574 ft | 496 kts | 105° |
| 2026-05-04 15:54 | 46.82281 | -80.46673 | 34575 ft | 495 kts | 105° |
| 2026-05-04 15:55 | 46.80319 | -80.37067 | 34572 ft | 493 kts | 105° |
| 2026-05-04 15:55 | 46.78350 | -80.27473 | 34576 ft | 493 kts | 106° |
| 2026-05-04 15:56 | 46.76392 | -80.17973 | 34586 ft | 492 kts | 107° |
| 2026-05-04 15:56 | 46.74410 | -80.08408 | 34588 ft | 492 kts | 106° |
| 2026-05-04 15:57 | 46.72438 | -79.98943 | 34588 ft | 491 kts | 106° |
| 2026-05-04 15:57 | 46.70437 | -79.89366 | 34588 ft | 490 kts | 106° |
| 2026-05-04 15:58 | 46.68453 | -79.79927 | 34590 ft | 490 kts | 106° |
| 2026-05-04 15:58 | 46.66447 | -79.70423 | 34587 ft | 490 kts | 106° |
| 2026-05-04 15:59 | 46.64442 | -79.60969 | 34591 ft | 489 kts | 106° |
| 2026-05-04 15:59 | 46.62422 | -79.51499 | 34604 ft | 489 kts | 105° |
| 2026-05-04 16:00 | 46.60398 | -79.42039 | 34611 ft | 489 kts | 105° |
| 2026-05-04 16:00 | 46.58362 | -79.32561 | 34614 ft | 489 kts | 106° |
| 2026-05-04 16:01 | 46.56323 | -79.23129 | 34610 ft | 488 kts | 107° |
| 2026-05-04 16:01 | 46.54288 | -79.13753 | 34609 ft | 489 kts | 106° |
| 2026-05-04 16:02 | 46.52228 | -79.04299 | 34614 ft | 488 kts | 106° |
| 2026-05-04 16:03 | 46.49161 | -78.90314 | 34606 ft | 487 kts | 106° |
| 2026-05-04 16:03 | 46.47098 | -78.80950 | 34610 ft | 488 kts | 106° |
| 2026-05-04 16:04 | 46.45029 | -78.71604 | 34620 ft | 488 kts | 106° |
| 2026-05-04 16:04 | 46.41901 | -78.57562 | 34628 ft | 487 kts | 106° |
| 2026-05-04 16:05 | 46.39814 | -78.48235 | 34628 ft | 488 kts | 106° |
| 2026-05-04 16:06 | 46.36659 | -78.34225 | 34632 ft | 489 kts | 107° |
| 2026-05-04 16:07 | 46.32240 | -78.15638 | 34561 ft | 488 kts | 112° |
| 2026-05-04 16:07 | 46.27764 | -78.02643 | 34179 ft | 480 kts | 117° |
| 2026-05-04 16:08 | 46.26226 | -77.98382 | 34051 ft | 480 kts | 117° |
| 2026-05-04 16:08 | 46.21602 | -77.85522 | 33447 ft | 480 kts | 117° |
| 2026-05-04 16:09 | 46.18505 | -77.76899 | 31641 ft | 495 kts | 116° |
| 2026-05-04 16:09 | 46.15322 | -77.68066 | 29837 ft | 502 kts | 116° |
| 2026-05-04 16:10 | 46.12122 | -77.59203 | 28383 ft | 498 kts | 116° |
| 2026-05-04 16:11 | 46.07391 | -77.46180 | 26731 ft | 480 kts | 116° |
| 2026-05-04 16:11 | 46.05848 | -77.41939 | 26245 ft | 473 kts | 117° |
| 2026-05-04 16:12 | 46.01351 | -77.29635 | 24823 ft | 455 kts | 117° |
| 2026-05-04 16:12 | 45.97008 | -77.17805 | 23438 ft | 440 kts | 117° |
| 2026-05-04 16:13 | 45.94170 | -77.10094 | 22506 ft | 432 kts | 118° |
| 2026-05-04 16:13 | 45.91376 | -77.02527 | 21583 ft | 424 kts | 118° |
| 2026-05-04 16:14 | 45.88620 | -76.95093 | 20654 ft | 418 kts | 118° |
| 2026-05-04 16:14 | 45.85895 | -76.87762 | 19734 ft | 412 kts | 119° |
| 2026-05-04 16:15 | 45.81878 | -76.76996 | 18356 ft | 406 kts | 120° |
| 2026-05-04 16:16 | 45.79230 | -76.69938 | 17455 ft | 402 kts | 119° |
| 2026-05-04 16:16 | 45.75295 | -76.59460 | 16115 ft | 396 kts | 119° |
| 2026-05-04 16:17 | 45.72687 | -76.52541 | 15203 ft | 392 kts | 119° |
| 2026-05-04 16:18 | 45.68832 | -76.42344 | 13869 ft | 386 kts | 119° |
| 2026-05-04 16:18 | 45.67553 | -76.38973 | 13406 ft | 384 kts | 119° |
| 2026-05-04 16:19 | 45.63748 | -76.28969 | 12043 ft | 376 kts | 120° |
| 2026-05-04 16:19 | 45.61263 | -76.22461 | 11153 ft | 371 kts | 120° |
| 2026-05-04 16:20 | 45.58155 | -76.12679 | 10119 ft | 350 kts | 104° |
| 2026-05-04 16:20 | 45.57205 | -76.06265 | 9915 ft | 312 kts | 102° |
| 2026-05-04 16:21 | 45.55830 | -75.97750 | 9536 ft | 285 kts | 104° |
| 2026-05-04 16:22 | 45.54875 | -75.92291 | 9005 ft | 282 kts | 105° |
| 2026-05-04 16:22 | 45.53439 | -75.84181 | 7879 ft | 287 kts | 105° |
| 2026-05-04 16:23 | 45.51927 | -75.75684 | 6457 ft | 298 kts | 106° |
| 2026-05-04 16:24 | 45.49966 | -75.64739 | 5060 ft | 274 kts | 106° |
| 2026-05-04 16:25 | 45.49031 | -75.59553 | 4479 ft | 267 kts | 106° |
| 2026-05-04 16:26 | 45.46349 | -75.51021 | 4083 ft | 227 kts | 153° |
| 2026-05-04 16:26 | 45.42475 | -75.47707 | 3619 ft | 199 kts | 153° |
| 2026-05-04 16:27 | 45.40115 | -75.47082 | 3177 ft | 172 kts | 219° |
| 2026-05-04 16:28 | 45.38412 | -75.51189 | 2510 ft | 148 kts | 239° |
| 2026-05-04 16:28 | 45.36769 | -75.54953 | 1907 ft | 148 kts | 238° |
| 2026-05-04 16:29 | 45.34746 | -75.59579 | 1194 ft | 135 kts | 236° |
| 2026-05-04 16:30 | 45.33212 | -75.62936 | 688 ft | 134 kts | 237° |
| 2026-05-04 16:31 | 45.32217 | -75.65151 | 372 ft | 124 kts | 238° |
| 2026-05-04 16:31 | 45.31479 | -75.66796 | 373 ft | 37 kts | 237° |
| 2026-05-04 16:32 | 45.31394 | -75.67141 | 369 ft | 7 kts | 352° |
| 2026-05-04 16:33 | 45.31486 | -75.67117 | 372 ft | 6 kts | 11° |
| 2026-05-04 16:33 | 45.31574 | -75.67080 | 375 ft | 7 kts | 37° |
| 2026-05-04 16:34 | 45.31650 | -75.66924 | 376 ft | 12 kts | 57° |
| 2026-05-04 16:34 | 45.31701 | -75.66812 | 377 ft | 14 kts | 57° |
| 2026-05-04 16:35 | 45.31857 | -75.66485 | 375 ft | 7 kts | 24° |
| 2026-05-04 16:35 | 45.31949 | -75.66596 | 376 ft | 4 kts | 306° |
| 2026-05-04 16:36 | 45.31967 | -75.66632 | 376 ft | 4 kts | 306° |
| 2026-05-04 16:36 | 45.32007 | -75.66708 | 377 ft | 5 kts | 306° |
| 2026-05-04 16:37 | 45.32057 | -75.66805 | 378 ft | 6 kts | 306° |
| 2026-05-04 16:37 | 45.32087 | -75.66825 | 378 ft | 4 kts | 13° |
| 2026-05-04 16:37 | 45.32131 | -75.66784 | 377 ft | 2 kts | 34° |
| 2026-05-04 16:38 | 45.32149 | -75.66766 | 377 ft | 1 kts | 36° |
| 2026-05-04 16:39 | 45.32150 | -75.66764 | 377 ft | 0 kts | 36° |